72XS weather

El Paisano Airport
Round Top, Texas, United States

Public forecast

Using degrees Fahrenheit for public forecast. Weather courtesy of forecast.io.

METAR (pilot weather report)

Closest report is Fayette Regional Air Center Airport, 15.7 nm (29.1 km) WSW. Retrieved 2019/07/21 06:35 UTC (0 seconds ago):

K3T5 210635Z AUTO 00000KT 7SM CLR 26/26 A2992 RMK AO2 T02550255

TAF (pilot weather forecast)

Closest forecast is Easterwood Field, 37.2 nm (69.0 km) NNE. Retrieved 2019/07/21 06:22 UTC (7 minutes ago):

TAF KCLL 210520Z 2106/2206 17009KT P6SM FEW250 FM210800 18004KT P6SM SCT015 FM211000 VRB04KT P6SM SCT008 BKN015 FM211500 19007KT P6SM SCT025 FM212100 16009KT P6SM VCTS SCT040CB BKN250 FM220100 18005KT P6SM SCT250